Time;durP1;ratioP1;P1;durP2;ratioP2;P2;SDS_P1;SDS_P2;PMS_P1;PMS_P2;Temp;Humidity;BMP_temperature;BMP_pressure;BME280_temperature;BME280_humidity;BME280_pressure;Samples;Min_cycle;Max_cycle;Signal;HPM_P1;HPM_P2
2023/04/22 00:00:43;;;;;;;4.63;2.70;;;20.10;72.80;;;;;;5018940;28;20619;-80
2023/04/22 00:03:09;;;;;;;9.30;2.85;;;20.10;72.90;;;;;;5018381;28;20029;-80
2023/04/22 00:05:34;;;;;;;6.57;2.70;;;20.10;72.90;;;;;;5018343;28;20022;-82
2023/04/22 00:08:00;;;;;;;3.25;2.35;;;20.10;72.90;;;;;;5019528;28;20112;-78
2023/04/22 00:10:26;;;;;;;5.32;2.83;;;20.10;72.90;;;;;;5016042;28;20030;-79
2023/04/22 00:12:52;;;;;;;5.43;2.25;;;20.00;72.80;;;;;;5014475;28;20052;-79
2023/04/22 00:15:20;;;;;;;5.60;2.75;;;20.00;72.90;;;;;;5018789;28;20045;-80
2023/04/22 00:17:46;;;;;;;7.10;2.88;;;20.00;72.90;;;;;;5017055;28;20036;-80
2023/04/22 00:20:12;;;;;;;6.13;2.65;;;20.00;73.00;;;;;;5020479;28;20049;-81
2023/04/22 00:22:37;;;;;;;2.97;2.47;;;20.00;72.90;;;;;;5014125;28;20081;-81
2023/04/22 00:25:03;;;;;;;3.65;2.80;;;20.00;72.90;;;;;;5020199;28;20053;-82
2023/04/22 00:27:29;;;;;;;4.95;3.22;;;20.00;73.00;;;;;;5011896;28;20018;-80
2023/04/22 00:29:55;;;;;;;3.25;2.40;;;20.00;73.00;;;;;;5022655;28;20025;-80
2023/04/22 00:32:21;;;;;;;4.40;2.50;;;20.00;73.00;;;;;;5013039;28;20020;-81
2023/04/22 00:34:46;;;;;;;5.18;2.70;;;20.00;73.00;;;;;;5015881;28;20023;-80
2023/04/22 00:37:12;;;;;;;4.53;2.70;;;20.00;73.00;;;;;;5014242;28;20044;-81
2023/04/22 00:39:38;;;;;;;3.25;2.50;;;20.00;73.00;;;;;;5019350;28;20525;-81
2023/04/22 00:42:06;;;;;;;4.63;2.38;;;20.00;73.00;;;;;;5012685;28;20061;-81
2023/04/22 00:44:32;;;;;;;6.03;2.63;;;20.00;73.10;;;;;;5019168;28;20035;-81
2023/04/22 00:46:58;;;;;;;3.92;2.35;;;20.00;73.10;;;;;;5016459;28;20028;-79
2023/04/22 00:49:26;;;;;;;4.45;2.50;;;20.00;73.10;;;;;;5022622;28;20440;-80
2023/04/22 00:51:52;;;;;;;5.13;2.92;;;20.00;73.20;;;;;;5012901;28;20120;-79
2023/04/22 00:54:18;;;;;;;7.82;2.38;;;19.90;73.10;;;;;;5022704;28;20128;-81
2023/04/22 00:56:45;;;;;;;3.05;2.33;;;19.90;73.10;;;;;;5012625;28;20117;-79
2023/04/22 00:59:11;;;;;;;4.25;2.40;;;19.90;73.10;;;;;;5027145;28;20036;-80
2023/04/22 01:01:37;;;;;;;6.10;2.45;;;19.90;73.10;;;;;;5009400;28;20502;-79
2023/04/22 01:04:03;;;;;;;4.20;2.38;;;19.90;73.50;;;;;;5024187;28;20099;-80
2023/04/22 01:06:31;;;;;;;3.40;2.20;;;19.90;74.00;;;;;;5011475;28;20675;-80
2023/04/22 01:08:57;;;;;;;8.43;2.47;;;19.90;73.20;;;;;;5023423;28;20030;-80
2023/04/22 01:11:24;;;;;;;4.63;2.20;;;19.90;73.20;;;;;;5008468;28;20079;-78
2023/04/22 01:13:50;;;;;;;6.97;2.38;;;19.90;73.30;;;;;;5037247;28;20021;-78
2023/04/22 01:16:16;;;;;;;4.03;2.40;;;19.90;73.30;;;;;;5010888;28;20014;-78
2023/04/22 01:18:41;;;;;;;6.93;2.60;;;19.90;73.30;;;;;;5024935;28;20504;-80
2023/04/22 01:21:07;;;;;;;4.05;2.80;;;19.90;73.30;;;;;;5008021;28;20025;-80
2023/04/22 01:23:33;;;;;;;2.88;2.10;;;19.90;73.30;;;;;;5019123;28;20036;-79
2023/04/22 01:25:58;;;;;;;3.42;2.45;;;19.90;73.40;;;;;;5013992;28;20032;-79
2023/04/22 01:28:24;;;;;;;4.10;2.30;;;19.90;73.30;;;;;;5022617;28;20401;-80
2023/04/22 01:30:51;;;;;;;4.93;2.30;;;19.80;73.30;;;;;;5010574;28;20097;-77
2023/04/22 01:33:17;;;;;;;4.72;2.20;;;19.80;74.10;;;;;;5022307;28;20037;-81
2023/04/22 01:35:43;;;;;;;4.22;1.80;;;19.90;73.40;;;;;;5017301;28;20026;-77
2023/04/22 01:38:10;;;;;;;3.58;2.60;;;19.80;73.30;;;;;;5023411;28;20030;-77
2023/04/22 01:40:37;;;;;;;5.68;2.42;;;19.80;73.30;;;;;;5013690;28;20022;-75
2023/04/22 01:43:04;;;;;;;3.38;2.25;;;19.80;73.40;;;;;;5011338;28;20402;-81
2023/04/22 01:45:30;;;;;;;3.35;2.50;;;19.80;73.40;;;;;;5005710;28;20026;-81
2023/04/22 01:47:55;;;;;;;6.30;2.45;;;19.80;73.40;;;;;;5014600;28;20367;-79
2023/04/22 01:50:22;;;;;;;3.72;2.25;;;19.80;73.40;;;;;;5006400;28;20025;-79
2023/04/22 01:52:47;;;;;;;3.00;2.30;;;19.80;73.40;;;;;;5013643;28;20018;-80
2023/04/22 01:55:13;;;;;;;9.85;2.30;;;19.80;73.40;;;;;;5014974;28;20030;-79
2023/04/22 01:57:39;;;;;;;6.53;2.47;;;19.80;73.50;;;;;;5016467;28;20013;-81
2023/04/22 02:00:07;;;;;;;2.92;2.05;;;19.80;73.50;;;;;;5014911;28;20029;-80
2023/04/22 02:02:33;;;;;;;2.90;2.13;;;19.80;73.50;;;;;;5015293;28;20023;-81
2023/04/22 02:04:58;;;;;;;4.13;2.35;;;19.80;73.40;;;;;;5017579;28;20022;-82
2023/04/22 02:07:24;;;;;;;4.20;2.45;;;19.80;73.50;;;;;;5018043;28;20029;-80
2023/04/22 02:09:50;;;;;;;3.38;2.28;;;19.80;73.50;;;;;;5016760;28;20030;-79
2023/04/22 02:12:15;;;;;;;4.47;2.13;;;19.70;73.50;;;;;;5018116;28;20439;-80
2023/04/22 02:14:41;;;;;;;3.85;2.88;;;19.80;73.50;;;;;;5030645;28;20064;-79
2023/04/22 02:17:06;;;;;;;2.95;2.20;;;19.80;73.50;;;;;;5017372;28;20026;-80
2023/04/22 02:19:32;;;;;;;3.67;2.10;;;19.80;73.50;;;;;;5018940;28;20060;-81
2023/04/22 02:21:58;;;;;;;4.20;2.13;;;19.70;73.50;;;;;;5017199;28;20029;-80
2023/04/22 02:24:23;;;;;;;3.10;2.28;;;19.70;73.50;;;;;;5013460;28;20037;-82
2023/04/22 02:26:49;;;;;;;2.80;2.10;;;19.70;73.50;;;;;;5011054;28;20081;-81
2023/04/22 02:29:16;;;;;;;4.05;2.63;;;19.70;73.60;;;;;;5014314;28;20061;-82
2023/04/22 02:31:41;;;;;;;3.28;2.15;;;19.70;73.50;;;;;;5012762;28;20034;-82
2023/04/22 02:34:07;;;;;;;3.47;2.40;;;19.70;73.60;;;;;;5011401;28;20029;-79
2023/04/22 02:36:33;;;;;;;3.42;2.42;;;19.70;73.60;;;;;;5004237;28;20037;-79
2023/04/22 02:39:00;;;;;;;2.22;1.98;;;19.70;73.60;;;;;;5009272;28;20059;-81
2023/04/22 02:41:26;;;;;;;2.65;1.75;;;19.70;73.60;;;;;;5005555;28;20053;-82
2023/04/22 02:43:51;;;;;;;3.17;2.38;;;19.70;73.50;;;;;;5015533;28;20025;-81
2023/04/22 02:46:17;;;;;;;3.10;2.10;;;19.70;73.60;;;;;;5008832;28;20026;-79
2023/04/22 02:48:43;;;;;;;4.82;3.00;;;19.70;73.70;;;;;;5014752;28;20034;-81
2023/04/22 02:51:09;;;;;;;5.80;2.10;;;19.70;73.60;;;;;;5013514;28;20036;-81
2023/04/22 02:53:35;;;;;;;3.88;2.22;;;19.70;73.60;;;;;;5015467;28;20040;-81
2023/04/22 02:56:00;;;;;;;3.33;2.33;;;19.70;73.60;;;;;;5018177;28;20584;-79
2023/04/22 02:58:26;;;;;;;2.75;2.05;;;19.70;73.60;;;;;;5015231;28;20029;-80
2023/04/22 03:00:52;;;;;;;4.63;2.40;;;19.70;73.70;;;;;;5014135;28;20490;-81
2023/04/22 03:03:17;;;;;;;4.30;2.17;;;19.70;73.70;;;;;;5016422;28;20518;-80
2023/04/22 03:05:43;;;;;;;3.90;2.10;;;19.70;73.70;;;;;;5014830;28;20168;-78
2023/04/22 03:08:09;;;;;;;3.55;2.63;;;19.70;73.70;;;;;;5017557;28;20034;-80
2023/04/22 03:10:35;;;;;;;5.20;2.03;;;19.70;73.60;;;;;;5013861;28;21112;-78
2023/04/22 03:13:00;;;;;;;2.25;1.92;;;19.70;73.70;;;;;;5016486;28;20398;-80
2023/04/22 03:15:26;;;;;;;3.78;2.50;;;19.70;73.70;;;;;;5014792;28;20181;-79
2023/04/22 03:17:51;;;;;;;3.85;2.17;;;19.70;73.70;;;;;;5016776;28;20025;-80
2023/04/22 03:20:17;;;;;;;3.10;2.08;;;19.70;73.70;;;;;;5011627;28;20482;-79
2023/04/22 03:22:42;;;;;;;3.60;2.25;;;19.60;73.60;;;;;;5019151;28;20433;-81
2023/04/22 03:25:10;;;;;;;3.53;2.22;;;19.70;73.70;;;;;;5012912;28;20068;-79
2023/04/22 03:27:36;;;;;;;2.15;1.88;;;19.60;73.70;;;;;;5017874;28;20550;-80
2023/04/22 03:30:03;;;;;;;2.28;1.80;;;19.60;73.70;;;;;;5015057;28;20063;-80
2023/04/22 03:32:28;;;;;;;5.43;2.25;;;19.60;73.70;;;;;;5018347;28;20084;-81
2023/04/22 03:34:54;;;;;;;3.58;2.35;;;19.70;73.80;;;;;;5009983;28;20104;-80
2023/04/22 03:37:19;;;;;;;2.70;2.03;;;19.60;73.70;;;;;;5016751;28;20049;-80
2023/04/22 03:39:45;;;;;;;3.30;2.30;;;19.60;73.70;;;;;;5015486;28;20395;-80
2023/04/22 03:42:12;;;;;;;3.00;2.22;;;19.60;73.80;;;;;;5014070;28;20517;-80
2023/04/22 03:44:38;;;;;;;2.78;1.70;;;19.60;73.80;;;;;;5012922;28;20034;-80
2023/04/22 03:47:03;;;;;;;3.28;2.08;;;19.60;73.80;;;;;;5018053;28;20041;-79
2023/04/22 03:49:29;;;;;;;3.35;2.03;;;19.60;73.80;;;;;;5011876;28;20037;-82
2023/04/22 03:51:55;;;;;;;3.20;1.83;;;19.60;73.80;;;;;;5019989;28;20017;-78
2023/04/22 03:54:20;;;;;;;2.92;2.05;;;19.60;73.80;;;;;;5010950;28;20481;-79
2023/04/22 03:56:46;;;;;;;2.95;2.30;;;19.60;73.80;;;;;;5016930;28;20390;-80
2023/04/22 03:59:11;;;;;;;3.10;2.13;;;19.60;73.80;;;;;;5014865;28;20136;-80
2023/04/22 04:01:37;;;;;;;3.20;2.13;;;19.60;73.80;;;;;;5015068;28;20071;-79
2023/04/22 04:04:02;;;;;;;3.38;1.85;;;19.60;73.80;;;;;;5011760;28;20546;-80
2023/04/22 04:06:28;;;;;;;2.15;1.95;;;19.60;73.80;;;;;;5019483;28;20487;-79
2023/04/22 04:08:53;;;;;;;4.65;2.20;;;19.60;73.80;;;;;;5018112;28;20049;-79
2023/04/22 04:11:19;;;;;;;7.00;2.50;;;19.60;74.40;;;;;;5021611;28;20033;-81
2023/04/22 04:13:45;;;;;;;8.05;2.28;;;19.60;75.40;;;;;;5018401;28;20025;-80
2023/04/22 04:16:10;;;;;;;5.80;3.03;;;19.50;75.50;;;;;;5024278;28;20022;-80
2023/04/22 04:18:37;;;;;;;7.80;3.05;;;19.50;75.50;;;;;;5015840;28;20047;-78
2023/04/22 04:21:03;;;;;;;20.85;2.53;;;19.50;75.50;;;;;;5038053;28;20112;-81
2023/04/22 04:23:28;;;;;;;9.77;2.30;;;19.50;75.50;;;;;;5021713;28;20065;-78
2023/04/22 04:25:54;;;;;;;2.97;2.30;;;19.50;75.50;;;;;;5021477;28;20026;-79
2023/04/22 04:28:20;;;;;;;11.88;2.70;;;19.40;75.40;;;;;;5018143;28;20524;-78
2023/04/22 04:30:46;;;;;;;4.07;2.42;;;19.40;75.40;;;;;;5021542;28;20022;-79
2023/04/22 04:33:12;;;;;;;6.63;2.60;;;19.40;75.50;;;;;;5022459;28;20025;-77
2023/04/22 04:35:38;;;;;;;3.33;2.28;;;19.40;75.50;;;;;;5023793;28;20029;-79
2023/04/22 04:38:04;;;;;;;2.85;2.25;;;19.40;75.60;;;;;;5018962;28;20837;-78
2023/04/22 04:40:31;;;;;;;3.35;2.40;;;19.40;75.50;;;;;;5019074;28;20076;-78
2023/04/22 04:42:56;;;;;;;2.90;2.00;;;19.40;75.60;;;;;;5020683;28;20022;-78
2023/04/22 04:45:23;;;;;;;3.55;2.03;;;19.40;75.70;;;;;;5022650;28;20514;-79
2023/04/22 04:47:51;;;;;;;7.38;2.22;;;19.40;75.80;;;;;;5020076;28;20017;-78
2023/04/22 04:50:18;;;;;;;4.38;2.20;;;19.50;75.90;;;;;;5022455;28;20505;-77
2023/04/22 04:52:45;;;;;;;5.85;2.35;;;19.50;76.00;;;;;;5021907;28;20127;-79
2023/04/22 04:55:11;;;;;;;5.53;2.50;;;19.50;76.00;;;;;;5025586;28;20049;-78
2023/04/22 04:57:36;;;;;;;4.53;2.30;;;19.50;76.00;;;;;;5020421;28;20033;-79
2023/04/22 05:00:02;;;;;;;4.38;2.60;;;19.50;76.00;;;;;;5016335;28;20029;-79
2023/04/22 05:02:28;;;;;;;4.55;2.65;;;19.50;76.00;;;;;;5015262;28;20034;-77
2023/04/22 05:04:53;;;;;;;4.13;2.20;;;19.50;76.00;;;;;;5020779;28;20400;-79
2023/04/22 05:07:19;;;;;;;3.53;2.17;;;19.50;76.00;;;;;;5017376;28;20565;-83
2023/04/22 05:09:44;;;;;;;3.90;2.40;;;19.50;76.00;;;;;;5015600;28;20042;-82
2023/04/22 05:12:10;;;;;;;5.30;2.17;;;19.50;76.10;;;;;;5015259;28;20021;-80
2023/04/22 05:14:35;;;;;;;5.38;1.98;;;19.60;77.00;;;;;;5017328;28;20026;-80
2023/04/22 05:17:02;;;;;;;4.63;2.58;;;19.60;75.80;;;;;;5018927;28;20021;-77
2023/04/22 05:19:27;;;;;;;6.80;2.00;;;19.60;75.90;;;;;;5017826;28;20665;-78
2023/04/22 05:21:53;;;;;;;4.90;1.80;;;19.60;75.90;;;;;;5035036;28;20041;-78
2023/04/22 05:24:18;;;;;;;4.35;2.55;;;19.60;75.90;;;;;;5020775;28;20037;-79
2023/04/22 05:26:44;;;;;;;3.65;2.00;;;19.70;76.00;;;;;;5014730;28;20101;-78
2023/04/22 05:29:09;;;;;;;3.83;2.17;;;19.70;75.90;;;;;;5013882;28;20087;-78
2023/04/22 05:31:35;;;;;;;4.25;1.70;;;19.70;75.90;;;;;;5015030;28;20052;-79
2023/04/22 05:34:00;;;;;;;7.90;2.30;;;19.70;75.80;;;;;;5017714;28;20474;-80
2023/04/22 05:36:26;;;;;;;6.88;2.00;;;19.70;75.70;;;;;;5021236;28;20525;-78
2023/04/22 05:38:52;;;;;;;4.63;2.33;;;19.70;75.70;;;;;;5016599;28;20013;-79
2023/04/22 05:41:17;;;;;;;4.53;2.08;;;19.70;75.70;;;;;;5021394;28;20098;-78
2023/04/22 05:43:43;;;;;;;4.20;2.10;;;19.70;75.60;;;;;;5018641;28;20539;-79
2023/04/22 05:46:08;;;;;;;3.00;1.83;;;19.80;75.70;;;;;;5020862;28;20029;-80
2023/04/22 05:48:34;;;;;;;3.15;2.15;;;19.70;75.60;;;;;;5019568;28;20061;-78
2023/04/22 05:51:00;;;;;;;3.25;1.75;;;19.80;75.70;;;;;;5018791;28;20033;-79
2023/04/22 05:53:25;;;;;;;11.98;2.30;;;19.80;75.70;;;;;;5022266;28;20032;-79
2023/04/22 05:55:52;;;;;;;29.40;2.85;;;19.80;76.50;;;;;;5014512;28;20017;-78
2023/04/22 05:58:17;;;;;;;47.60;3.05;;;19.80;76.50;;;;;;5014882;28;20500;-79
2023/04/22 06:00:43;;;;;;;19.88;2.28;;;19.90;76.30;;;;;;5013788;28;20069;-79
2023/04/22 06:03:09;;;;;;;15.88;2.47;;;19.90;76.20;;;;;;5015033;28;20486;-79
2023/04/22 06:05:34;;;;;;;13.55;2.83;;;19.90;76.10;;;;;;5014491;28;20486;-80
2023/04/22 06:08:00;;;;;;;14.23;3.70;;;19.90;76.00;;;;;;5014002;28;20421;-81
2023/04/22 06:10:25;;;;;;;12.15;2.40;;;19.90;76.60;;;;;;5010324;28;20030;-81
2023/04/22 06:12:51;;;;;;;8.60;2.92;;;19.90;75.80;;;;;;5018037;28;20482;-80
2023/04/22 06:15:16;;;;;;;8.90;2.08;;;19.90;75.80;;;;;;5009650;28;20029;-79
2023/04/22 06:17:43;;;;;;;14.85;2.45;;;20.00;75.80;;;;;;5014899;28;20025;-81
2023/04/22 06:20:10;;;;;;;36.97;2.78;;;20.00;75.70;;;;;;5007168;28;20085;-81
2023/04/22 06:22:36;;;;;;;15.77;2.30;;;20.00;75.70;;;;;;5016651;28;20538;-82
2023/04/22 06:25:02;;;;;;;10.52;2.28;;;20.00;75.60;;;;;;5025088;28;20041;-81
2023/04/22 06:27:27;;;;;;;21.55;3.05;;;20.00;75.80;;;;;;5021567;28;20552;-86
2023/04/22 06:29:53;;;;;;;36.25;3.88;;;20.00;76.00;;;;;;5018076;28;20453;-82
2023/04/22 06:32:18;;;;;;;28.50;3.30;;;20.10;76.70;;;;;;5021058;28;20026;-83
2023/04/22 06:34:44;;;;;;;39.35;4.05;;;20.10;76.60;;;;;;5020931;28;20022;-79
2023/04/22 06:37:09;;;;;;;12.70;2.40;;;20.10;76.80;;;;;;5020194;28;20376;-79
2023/04/22 06:39:35;;;;;;;20.70;3.58;;;20.10;76.70;;;;;;5020572;28;20414;-80
2023/04/22 06:42:01;;;;;;;15.20;2.50;;;20.10;76.60;;;;;;5020255;28;20498;-79
2023/04/22 06:44:27;;;;;;;12.05;2.63;;;20.10;76.40;;;;;;5018273;28;20029;-80
2023/04/22 06:46:53;;;;;;;13.05;2.55;;;20.10;76.30;;;;;;5017821;28;20100;-79
2023/04/22 06:49:18;;;;;;;17.10;2.40;;;20.10;76.20;;;;;;5017499;28;20041;-79
2023/04/22 06:51:44;;;;;;;9.27;2.65;;;20.10;76.10;;;;;;5017518;28;20029;-79
2023/04/22 06:54:10;;;;;;;12.13;2.72;;;20.10;76.00;;;;;;5014781;28;20014;-80
2023/04/22 06:56:35;;;;;;;9.05;2.92;;;20.10;75.80;;;;;;5012352;28;20022;-80
2023/04/22 06:59:01;;;;;;;13.57;2.30;;;20.10;75.70;;;;;;5019680;28;20026;-80
2023/04/22 07:01:27;;;;;;;9.82;2.53;;;20.20;75.60;;;;;;5015657;28;20040;-78
2023/04/22 07:03:52;;;;;;;6.53;2.40;;;20.20;75.60;;;;;;5016958;28;20018;-79
2023/04/22 07:06:18;;;;;;;13.40;3.08;;;20.20;75.40;;;;;;5017807;28;20490;-78
2023/04/22 07:08:43;;;;;;;5.10;2.33;;;20.20;75.30;;;;;;5019885;28;20037;-80
2023/04/22 07:11:09;;;;;;;5.90;2.17;;;20.20;75.20;;;;;;5027530;28;20526;-78
2023/04/22 07:13:35;;;;;;;9.27;2.60;;;20.30;75.20;;;;;;5020079;28;20036;-79
2023/04/22 07:16:01;;;;;;;3.35;1.98;;;20.30;75.10;;;;;;5035079;28;20050;-79
2023/04/22 07:18:27;;;;;;;8.00;2.55;;;20.30;75.10;;;;;;5024426;28;20109;-78
2023/04/22 07:20:53;;;;;;;5.93;2.10;;;20.30;74.80;;;;;;5014032;28;20029;-78
2023/04/22 07:23:19;;;;;;;11.52;2.13;;;20.30;74.90;;;;;;5022195;28;20029;-79
2023/04/22 07:25:44;;;;;;;4.00;2.10;;;20.40;74.70;;;;;;5017400;28;20407;-79
2023/04/22 07:28:10;;;;;;;7.13;1.92;;;20.40;74.70;;;;;;5038722;28;20026;-79
2023/04/22 07:30:35;;;;;;;5.80;2.20;;;20.40;74.60;;;;;;5017206;28;20449;-78
2023/04/22 07:33:01;;;;;;;5.93;2.33;;;20.50;74.60;;;;;;5018604;28;20021;-79
2023/04/22 07:35:27;;;;;;;5.43;2.13;;;20.50;74.50;;;;;;5023854;28;20064;-79
2023/04/22 07:37:53;;;;;;;4.43;2.00;;;20.50;74.20;;;;;;5018668;28;20022;-78
2023/04/22 07:40:19;;;;;;;3.65;1.63;;;20.50;74.40;;;;;;5021779;28;20048;-80
2023/04/22 07:42:45;;;;;;;7.40;1.85;;;20.50;74.20;;;;;;5021528;28;20075;-86
2023/04/22 07:45:11;;;;;;;9.43;2.63;;;20.60;74.20;;;;;;5010874;28;20038;-85
2023/04/22 07:47:37;;;;;;;5.47;2.35;;;20.60;74.20;;;;;;5017131;28;20498;-84
2023/04/22 07:50:03;;;;;;;5.03;2.10;;;20.60;74.10;;;;;;5022573;28;20025;-81
2023/04/22 07:52:29;;;;;;;7.38;2.25;;;20.60;74.00;;;;;;5025079;28;20108;-78
2023/04/22 07:54:55;;;;;;;9.95;2.17;;;20.60;73.90;;;;;;5021381;28;20046;-78
2023/04/22 07:57:21;;;;;;;8.45;2.40;;;20.60;73.90;;;;;;5037040;28;20030;-78
2023/04/22 07:59:47;;;;;;;3.72;2.60;;;20.60;73.50;;;;;;5022799;28;20441;-78
2023/04/22 08:02:13;;;;;;;4.93;2.67;;;20.60;72.60;;;;;;5023717;28;20024;-78
2023/04/22 08:04:39;;;;;;;4.70;3.00;;;20.60;71.40;;;;;;5019887;28;20029;-78
2023/04/22 08:07:04;;;;;;;12.02;2.75;;;20.60;70.50;;;;;;5022708;28;20033;-77
2023/04/22 08:09:30;;;;;;;4.53;2.78;;;20.60;69.80;;;;;;5023405;28;20376;-78
2023/04/22 08:11:56;;;;;;;4.22;2.70;;;20.60;69.90;;;;;;5017353;28;20494;-80
2023/04/22 08:14:22;;;;;;;5.30;3.00;;;20.60;69.30;;;;;;5020869;28;20022;-78
2023/04/22 08:16:50;;;;;;;5.03;2.63;;;20.60;68.90;;;;;;5017196;28;20690;-79
2023/04/22 08:19:15;;;;;;;5.45;2.65;;;20.60;68.40;;;;;;5017308;28;20022;-79
2023/04/22 08:21:41;;;;;;;3.75;2.47;;;20.60;67.80;;;;;;5020275;28;20133;-79
2023/04/22 08:24:07;;;;;;;7.90;2.38;;;20.60;67.50;;;;;;5023321;28;20091;-78
2023/04/22 08:26:32;;;;;;;3.83;2.25;;;20.50;67.20;;;;;;5023573;28;20053;-79
2023/04/22 08:28:59;;;;;;;8.27;2.45;;;20.50;67.20;;;;;;5022279;28;20018;-80
2023/04/22 08:31:25;;;;;;;3.67;2.40;;;20.50;66.90;;;;;;5021366;28;20034;-80
2023/04/22 08:33:50;;;;;;;27.70;4.05;;;20.50;66.90;;;;;;5017631;28;20014;-83
2023/04/22 08:36:16;;;;;;;33.85;3.65;;;20.50;67.30;;;;;;5014090;28;20017;-84
2023/04/22 08:38:42;;;;;;;4.32;2.20;;;20.50;67.60;;;;;;5018988;28;20029;-83
2023/04/22 08:41:08;;;;;;;6.97;2.42;;;20.40;68.00;;;;;;5018859;28;20522;-80
2023/04/22 08:43:35;;;;;;;6.88;2.03;;;20.40;68.70;;;;;;5022272;28;20025;-80
2023/04/22 08:46:01;;;;;;;10.93;2.13;;;20.40;68.90;;;;;;5013606;28;20051;-81
2023/04/22 08:48:26;;;;;;;10.23;2.58;;;20.40;69.30;;;;;;5017637;28;20026;-84
2023/04/22 08:50:52;;;;;;;10.60;2.45;;;20.40;69.80;;;;;;5013006;28;20022;-80
2023/04/22 08:53:20;;;;;;;9.80;2.10;;;20.30;70.00;;;;;;5007511;28;20057;-82
2023/04/22 08:55:45;;;;;;;10.75;2.38;;;20.30;70.30;;;;;;5006247;28;20028;-82
2023/04/22 08:58:11;;;;;;;7.40;2.08;;;20.30;70.50;;;;;;5010411;28;20462;-83
2023/04/22 09:00:38;;;;;;;12.15;2.15;;;20.30;70.80;;;;;;5010561;28;20076;-82
2023/04/22 09:03:05;;;;;;;5.03;1.90;;;20.30;71.20;;;;;;5018043;28;20022;-81
2023/04/22 09:05:35;;;;;;;12.90;2.28;;;20.30;71.40;;;;;;5015918;28;20021;-78
2023/04/22 09:08:02;;;;;;;7.28;2.15;;;20.30;71.70;;;;;;5019526;28;20080;-81
2023/04/22 09:10:29;;;;;;;6.95;2.25;;;20.30;72.20;;;;;;5018487;28;20029;-80
2023/04/22 09:12:57;;;;;;;7.25;1.95;;;20.30;72.40;;;;;;5021675;28;20022;-83
2023/04/22 09:15:23;;;;;;;5.35;2.08;;;20.30;73.00;;;;;;5019919;28;20025;-81
2023/04/22 09:17:50;;;;;;;6.55;2.10;;;20.30;73.20;;;;;;5022677;28;20474;-81
2023/04/22 09:20:17;;;;;;;7.53;1.77;;;20.30;73.40;;;;;;5018664;28;20064;-81
2023/04/22 09:22:48;;;;;;;3.58;1.88;;;20.30;73.70;;;;;;5017657;28;20029;-80
2023/04/22 09:25:22;;;;;;;7.43;2.45;;;20.30;73.80;;;;;;5020674;28;20149;-81
2023/04/22 09:27:50;;;;;;;6.78;2.33;;;20.30;74.30;;;;;;5019252;28;20025;-82
2023/04/22 09:30:18;;;;;;;7.15;2.15;;;20.30;74.50;;;;;;5033444;28;20029;-82
2023/04/22 09:32:52;;;;;;;3.30;1.95;;;20.30;74.80;;;;;;5018364;28;20033;-82
2023/04/22 09:35:26;;;;;;;3.10;1.77;;;20.30;75.10;;;;;;5032725;28;20021;-83
2023/04/22 09:37:52;;;;;;;6.68;2.03;;;20.30;75.30;;;;;;5014123;28;20022;-85
2023/04/22 09:40:18;;;;;;;8.82;2.58;;;20.30;75.50;;;;;;5017547;28;20056;-84
2023/04/22 09:42:52;;;;;;;8.10;2.40;;;20.30;75.50;;;;;;5014865;28;20041;-81
2023/04/22 09:45:44;;;;;;;4.95;1.67;;;20.30;75.30;;;;;;5014079;28;20029;-85
2023/04/22 09:48:10;;;;;;;5.63;2.50;;;20.30;75.10;;;;;;5006739;28;20041;-82
2023/04/22 09:50:38;;;;;;;3.80;1.77;;;20.30;74.60;;;;;;5007541;28;20075;-81
2023/04/22 09:53:06;;;;;;;8.43;1.73;;;20.30;73.30;;;;;;5008796;28;20092;-84
2023/04/22 09:55:36;;;;;;;6.38;2.47;;;20.30;73.30;;;;;;5008829;28;20394;-84
2023/04/22 09:58:07;;;;;;;;;;;20.30;73.70;;;;;;5011588;28;20020;-82
2023/04/22 10:00:34;;;;;;;6.38;2.00;;;20.30;73.90;;;;;;5018723;28;19910;-82
2023/04/22 10:03:00;;;;;;;3.30;1.70;;;20.30;73.80;;;;;;5013629;28;20100;-81
2023/04/22 10:05:28;;;;;;;7.57;2.05;;;20.30;73.60;;;;;;5017287;28;20057;-82
2023/04/22 10:07:54;;;;;;;6.00;2.13;;;20.30;73.60;;;;;;5015213;28;20045;-83
2023/04/22 10:10:19;;;;;;;8.15;2.40;;;20.30;73.40;;;;;;5019815;28;20483;-82
2023/04/22 10:12:47;;;;;;;8.73;1.83;;;20.30;73.30;;;;;;5017944;28;20037;-83
2023/04/22 10:15:12;;;;;;;7.65;1.60;;;20.30;73.20;;;;;;5019304;28;20019;-82
2023/04/22 10:17:38;;;;;;;7.95;2.00;;;20.30;73.20;;;;;;5018525;28;20022;-83
2023/04/22 10:20:14;;;;;;;8.55;1.77;;;20.30;73.00;;;;;;5015073;28;20022;-83
2023/04/22 10:22:41;;;;;;;4.85;1.60;;;20.30;73.00;;;;;;5016132;28;20025;-82
2023/04/22 10:25:12;;;;;;;6.20;1.85;;;20.30;72.80;;;;;;5017252;28;20073;-82
2023/04/22 10:27:38;;;;;;;1.40;1.30;;;20.30;72.70;;;;;;5016812;28;20033;-83
2023/04/22 10:30:06;;;;;;;4.72;1.75;;;20.30;72.60;;;;;;5014384;28;20031;-82
2023/04/22 10:32:32;;;;;;;4.95;2.03;;;20.30;72.60;;;;;;5012964;28;20076;-83
2023/04/22 10:35:10;;;;;;;3.10;1.42;;;20.30;72.50;;;;;;5010764;28;20021;-83
2023/04/22 10:37:37;;;;;;;7.20;1.70;;;20.30;72.60;;;;;;5016566;28;20100;-83
2023/04/22 10:40:07;;;;;;;6.07;1.60;;;20.30;72.50;;;;;;5005279;28;20109;-83
2023/04/22 10:42:33;;;;;;;2.60;1.60;;;20.30;72.40;;;;;;5010451;28;20030;-83
2023/04/22 10:45:03;;;;;;;6.78;1.70;;;20.30;72.40;;;;;;5009737;28;20056;-82
2023/04/22 10:47:30;;;;;;;3.08;1.30;;;20.30;72.40;;;;;;5009749;28;20052;-83
2023/04/22 10:50:25;;;;;;;2.22;1.50;;;20.30;72.40;;;;;;5013578;28;20026;-83
2023/04/22 10:52:56;;;;;;;2.72;1.45;;;20.30;72.40;;;;;;5005973;28;20113;-83
2023/04/22 10:55:23;;;;;;;3.20;1.90;;;20.30;72.40;;;;;;5011778;28;20029;-83
2023/04/22 10:57:50;;;;;;;4.30;1.60;;;20.30;72.30;;;;;;5015035;28;20025;-83
2023/04/22 11:00:18;;;;;;;2.83;1.60;;;20.30;72.40;;;;;;5013391;28;20401;-84
2023/04/22 11:03:04;;;;;;;7.93;1.30;;;20.20;72.30;;;;;;5017912;28;20021;-83
2023/04/22 11:05:31;;;;;;;2.38;1.42;;;20.30;72.40;;;;;;5014354;28;20557;-83
2023/04/22 11:08:06;;;;;;;2.53;1.27;;;20.30;72.40;;;;;;5015950;28;20053;-83
2023/04/22 11:10:49;;;;;;;5.82;1.30;;;20.30;72.40;;;;;;5017874;28;20021;-83
2023/04/22 11:13:20;;;;;;;2.53;1.92;;;20.20;72.40;;;;;;5015847;28;20478;-83
2023/04/22 11:15:52;;;;;;;5.57;1.48;;;20.20;72.40;;;;;;5011613;28;20026;-83
2023/04/22 11:18:27;;;;;;;4.25;1.42;;;20.20;72.40;;;;;;5020484;28;20113;-83
2023/04/22 11:20:53;;;;;;;1.60;1.30;;;20.20;72.40;;;;;;5017777;28;20041;-83
2023/04/22 11:23:24;;;;;;;1.98;1.42;;;20.20;72.40;;;;;;5019277;28;20054;-82
2023/04/22 11:25:54;;;;;;;3.95;1.67;;;20.20;72.50;;;;;;5017038;28;20052;-81
2023/04/22 11:28:21;;;;;;;3.17;1.20;;;20.20;72.50;;;;;;5006980;28;20022;-82
2023/04/22 11:30:47;;;;;;;1.98;1.27;;;20.20;72.40;;;;;;5015344;28;20060;-82
2023/04/22 11:33:15;;;;;;;2.08;1.25;;;20.30;72.50;;;;;;5017179;28;20030;-82
2023/04/22 11:35:41;;;;;;;3.15;1.48;;;20.20;73.30;;;;;;5015276;28;20029;-82
2023/04/22 11:38:07;;;;;;;7.15;1.50;;;20.20;72.50;;;;;;5013448;28;20382;-82
2023/04/22 11:40:38;;;;;;;28.85;2.20;;;20.20;72.60;;;;;;5016156;28;20041;-83
2023/04/22 11:43:06;;;;;;;20.83;3.38;;;20.30;73.00;;;;;;5018485;28;20026;-82
2023/04/22 11:45:34;;;;;;;14.10;1.83;;;20.30;73.40;;;;;;5020227;28;20510;-82
2023/04/22 11:48:01;;;;;;;22.48;2.13;;;20.30;72.40;;;;;;5022363;28;20032;-79
2023/04/22 11:50:29;;;;;;;47.33;3.28;;;20.30;72.60;;;;;;5019409;28;20024;-83
2023/04/22 11:52:57;;;;;;;13.10;1.95;;;20.30;72.00;;;;;;5020641;28;20521;-83
2023/04/22 11:55:29;;;;;;;7.15;1.75;;;20.30;70.50;;;;;;5024771;28;20017;-83
2023/04/22 11:57:58;;;;;;;7.28;1.80;;;20.30;71.00;;;;;;5021155;28;20016;-83
2023/04/22 12:00:36;;;;;;;16.60;2.05;;;20.30;70.50;;;;;;5022359;28;20018;-83
2023/04/22 12:03:25;;;;;;;9.07;1.40;;;20.30;70.30;;;;;;5016509;28;20030;-83
2023/04/22 12:05:52;;;;;;;11.73;1.67;;;20.20;70.30;;;;;;5021214;28;20032;-84
2023/04/22 12:08:20;;;;;;;6.82;1.50;;;20.30;70.10;;;;;;5011057;28;20282;-84
2023/04/22 12:10:51;;;;;;;6.10;1.30;;;20.30;69.70;;;;;;5040879;28;20025;-83
2023/04/22 12:13:29;;;;;;;1.63;1.30;;;20.20;69.30;;;;;;5008087;28;20114;-83
2023/04/22 12:16:06;;;;;;;2.53;1.00;;;20.20;68.10;;;;;;5021444;28;20048;-82
2023/04/22 12:18:39;;;;;;;5.88;1.13;;;20.20;67.60;;;;;;5015434;28;20032;-86
2023/04/22 12:21:08;;;;;;;1.42;1.17;;;20.20;68.20;;;;;;5021527;28;20757;-83
2023/04/22 12:24:05;;;;;;;2.33;1.08;;;20.20;68.40;;;;;;5023400;28;20033;-83
2023/04/22 12:26:31;;;;;;;1.92;1.10;;;20.30;67.60;;;;;;5001182;28;20037;-85
2023/04/22 12:28:59;;;;;;;2.70;1.30;;;20.20;67.90;;;;;;5011717;28;20022;-87
2023/04/22 12:31:25;;;;;;;1.95;1.02;;;20.20;68.00;;;;;;5019159;28;20372;-83
2023/04/22 12:33:52;;;;;;;1.65;1.20;;;20.20;67.60;;;;;;5017094;28;20360;-86
2023/04/22 12:36:22;;;;;;;3.97;0.95;;;20.20;67.70;;;;;;5014022;28;20072;-83
2023/04/22 12:38:48;;;;;;;1.45;0.95;;;20.20;67.40;;;;;;5013643;28;20022;-83
2023/04/22 12:41:14;;;;;;;5.78;1.00;;;20.20;64.50;;;;;;5019712;28;20049;-83
2023/04/22 12:43:40;;;;;;;2.58;1.10;;;20.20;62.70;;;;;;5017684;28;20453;-83